Metar z połowy godziny Komunikat METAR ze strony awiacja.imgw.pl Metar G00 EPBY METAR EPBY 261830Z 27012KT 9000 -SN FEW012 SCT031 BKN040 00/M02 Q1008=